Time;durP1;ratioP1;P1;durP2;ratioP2;P2;SDS_P1;SDS_P2;PMS_P1;PMS_P2;Temp;Humidity;BMP_temperature;BMP_pressure;BME280_temperature;BME280_humidity;BME280_pressure;Samples;Min_cycle;Max_cycle;Signal;HPM_P1;HPM_P2
2021/03/01 00:00:49;;;;;;;4.23;3.83;;;;;;;1.37;97.68;100396.49;1728637;83;21824;-70
2021/03/01 00:03:17;;;;;;;3.67;3.03;;;;;;;1.42;97.66;100401.61;1727662;82;21124;-71
2021/03/01 00:05:44;;;;;;;10.47;4.33;;;;;;;1.46;97.54;100394.13;1728358;83;21133;-71
2021/03/01 00:08:12;;;;;;;2.97;2.73;;;;;;;1.46;97.41;100387.50;1728066;83;21128;-69
2021/03/01 00:10:39;;;;;;;3.30;2.87;;;;;;;1.41;97.17;100385.87;1727617;83;21171;-71
2021/03/01 00:13:07;;;;;;;5.70;4.47;;;;;;;1.38;97.17;100377.78;1727641;83;21672;-71
2021/03/01 00:15:34;;;;;;;9.53;4.67;;;;;;;1.41;97.25;100376.59;1727607;83;21129;-71
2021/03/01 00:18:02;;;;;;;8.07;4.73;;;;;;;1.46;97.20;100378.22;1727666;83;21618;-72
2021/03/01 00:20:31;;;;;;;7.57;4.13;;;;;;;1.49;97.25;100375.21;1727458;83;21581;-70
2021/03/01 00:22:59;;;;;;;4.80;3.40;;;;;;;1.54;97.21;100380.82;1727559;81;21661;-71
2021/03/01 00:25:26;;;;;;;4.37;3.83;;;;;;;1.62;97.34;100392.72;1727559;83;21929;-71
2021/03/01 00:27:53;;;;;;;4.87;3.63;;;;;;;1.67;97.20;100396.51;1727535;82;21582;-70
2021/03/01 00:30:23;;;;;;;6.80;5.07;;;;;;;1.67;96.81;100405.78;1734978;82;21042;-70
2021/03/01 00:32:50;;;;;;;4.73;3.53;;;;;;;1.65;96.57;100416.22;1713765;83;21153;-72
2021/03/01 00:35:18;;;;;;;3.40;3.10;;;;;;;1.59;96.43;100419.06;1741211;82;21173;-71
2021/03/01 00:37:46;;;;;;;3.53;3.23;;;;;;;1.52;96.44;100412.83;1751084;81;22399;-72
2021/03/01 00:40:14;;;;;;;2.43;2.23;;;;;;;1.50;96.58;100404.20;1750704;82;21121;-71
2021/03/01 00:42:42;;;;;;;3.72;3.33;;;;;;;1.51;96.67;100407.19;1751028;82;21168;-71
2021/03/01 00:45:10;;;;;;;3.63;3.33;;;;;;;1.50;96.57;100413.48;1751053;82;21196;-71
2021/03/01 00:47:38;;;;;;;2.85;2.50;;;;;;;1.53;96.76;100423.76;1751389;82;21110;-71
2021/03/01 00:50:08;;;;;;;3.02;2.83;;;;;;;1.60;96.91;100427.35;1751819;81;22322;-72
2021/03/01 00:52:36;;;;;;;3.27;3.00;;;;;;;1.63;96.82;100429.64;1741110;82;21057;-71
2021/03/01 00:55:07;;;;;;;2.75;2.55;;;;;;;1.59;96.60;100441.59;1738204;81;21153;-70
2021/03/01 00:57:35;;;;;;;3.22;2.98;;;;;;;1.55;96.48;100457.53;1727717;82;21128;-72
2021/03/01 01:00:12;;;;;;;4.17;3.80;;;;;;;1.47;96.56;100461.55;1729972;83;21125;-72
2021/03/01 01:02:42;;;;;;;3.37;3.07;;;;;;;1.44;96.94;100480.43;1705904;82;21440;-73
2021/03/01 01:05:37;;;;;;;3.27;3.00;;;;;;;1.48;97.07;100480.94;1807260;77;22768;-73
2021/03/01 01:08:06;;;;;;;3.10;2.80;;;;;;;1.45;97.08;100484.73;1781332;80;20995;-71
2021/03/01 01:10:34;;;;;;;2.50;2.30;;;;;;;1.46;97.07;100491.70;1780605;80;21147;-71
2021/03/01 01:13:03;;;;;;;2.30;2.20;;;;;;;1.48;97.12;100495.02;1781227;80;20952;-71
2021/03/01 01:15:31;;;;;;;3.00;2.80;;;;;;;1.47;97.05;100496.02;1781361;80;20999;-70
2021/03/01 01:17:59;;;;;;;3.47;3.17;;;;;;;1.47;97.11;100503.12;1781358;80;21063;-70
2021/03/01 01:20:27;;;;;;;3.00;2.67;;;;;;;1.53;97.25;100510.41;1781449;80;21011;-71
2021/03/01 01:22:54;;;;;;;2.90;2.70;;;;;;;1.55;97.14;100520.32;1755627;80;21811;-72
2021/03/01 01:25:22;;;;;;;2.70;2.47;;;;;;;1.53;97.01;100519.69;1750197;82;21019;-70
2021/03/01 01:27:50;;;;;;;2.30;2.20;;;;;;;1.54;96.99;100524.80;1750410;81;20951;-74
2021/03/01 01:30:21;;;;;;;2.57;2.37;;;;;;;1.47;96.76;100522.52;1750619;82;21154;-72
2021/03/01 01:32:48;;;;;;;3.60;3.30;;;;;;;1.49;96.93;100524.48;1751280;82;21642;-73
2021/03/01 01:35:18;;;;;;;3.73;3.40;;;;;;;1.49;96.94;100527.63;1750441;81;21375;-71
2021/03/01 01:37:45;;;;;;;4.35;3.35;;;;;;;1.53;97.11;100524.98;1750447;81;21638;-71
2021/03/01 01:40:18;;;;;;;2.92;2.70;;;;;;;1.58;97.08;100522.65;1750232;82;21384;-73
2021/03/01 01:42:45;;;;;;;4.00;3.30;;;;;;;1.58;96.95;100524.77;1750373;82;21761;-73
2021/03/01 01:45:15;;;;;;;3.80;3.50;;;;;;;1.59;96.79;100529.08;1750240;81;21191;-72
2021/03/01 01:47:44;;;;;;;4.27;3.83;;;;;;;1.58;96.68;100518.15;1750176;82;21363;-73
2021/03/01 01:50:12;;;;;;;3.67;3.40;;;;;;;1.58;96.58;100519.47;1750203;82;21030;-72
2021/03/01 01:52:42;;;;;;;4.10;3.70;;;;;;;1.62;96.67;100520.81;1750342;82;21007;-72
2021/03/01 01:55:11;;;;;;;3.60;3.10;;;;;;;1.62;96.48;100522.13;1750338;82;21141;-72
2021/03/01 01:57:38;;;;;;;9.50;5.43;;;;;;;1.62;96.34;100529.26;1750451;81;21149;-71
2021/03/01 02:00:13;;;;;;;4.57;3.87;;;;;;;1.57;96.17;100519.67;1750450;82;21367;-73
2021/03/01 02:02:38;;;;;;;3.47;2.77;;;;;;;1.61;96.39;100523.62;1750338;82;21007;-74
2021/03/01 02:05:08;;;;;;;3.20;2.90;;;;;;;1.59;96.19;100524.28;1750829;81;21173;-72
2021/03/01 02:07:55;;;;;;;4.17;3.87;;;;;;;1.62;96.39;100518.16;1751138;82;21058;-73
2021/03/01 02:11:03;;;;;;;3.50;3.20;;;;;;;1.66;96.37;100519.46;1751124;81;21161;-74
2021/03/01 02:13:35;;;;;;;3.07;2.87;;;;;;;1.73;96.26;100524.88;1751627;82;21820;-73
2021/03/01 02:16:09;;;;;;;3.80;3.50;;;;;;;1.78;96.22;100533.16;1751610;82;20952;-73
2021/03/01 02:18:37;;;;;;;3.50;3.20;;;;;;;1.77;95.76;100541.30;1750823;82;21201;-72
2021/03/01 02:21:09;;;;;;;3.23;3.00;;;;;;;1.69;95.66;100552.25;1750567;80;21137;-72
2021/03/01 02:23:37;;;;;;;3.33;2.98;;;;;;;1.69;95.78;100557.55;1750538;82;21272;-73
2021/03/01 02:26:12;;;;;;;3.37;3.17;;;;;;;1.60;95.60;100561.73;1750733;82;22704;-72
2021/03/01 02:28:45;;;;;;;2.90;2.67;;;;;;;1.53;95.70;100569.55;1750692;82;21583;-72
2021/03/01 02:31:13;;;;;;;2.92;2.70;;;;;;;1.54;95.91;100574.33;1750728;82;21132;-74
2021/03/01 02:33:44;;;;;;;2.77;2.58;;;;;;;1.51;95.96;100574.68;1750681;82;21109;-72
2021/03/01 02:36:30;;;;;;;;;;;;;;;1.52;96.17;100584.30;1753205;82;21170;-72
2021/03/01 02:38:58;;;;;;;3.33;3.03;;;;;;;1.57;96.31;100581.97;1747626;82;25294;-72
2021/03/01 02:41:26;;;;;;;3.37;3.07;;;;;;;1.53;96.26;100587.28;1705422;83;21647;-73
2021/03/01 02:43:53;;;;;;;5.05;4.65;;;;;;;1.50;96.30;100587.60;1705342;84;21123;-73
2021/03/01 02:46:21;;;;;;;3.73;3.30;;;;;;;1.49;96.33;100598.70;1683462;84;21145;-72
2021/03/01 02:48:49;;;;;;;3.80;3.50;;;;;;;1.51;96.44;100595.39;1705113;84;21210;-73
2021/03/01 02:51:16;;;;;;;5.97;4.67;;;;;;;1.56;96.58;100600.19;1704815;84;21877;-73
2021/03/01 02:53:44;;;;;;;3.97;3.60;;;;;;;1.55;96.40;100608.63;1704813;83;21655;-73
2021/03/01 02:56:14;;;;;;;3.73;3.37;;;;;;;1.53;96.38;100611.97;1705924;84;21170;-72
2021/03/01 02:58:41;;;;;;;6.83;3.70;;;;;;;1.53;96.42;100615.11;1661919;84;21687;-72
2021/03/01 03:01:09;;;;;;;3.60;3.30;;;;;;;1.47;96.24;100619.27;1682849;84;21481;-73
2021/03/01 03:03:38;;;;;;;4.00;3.60;;;;;;;1.49;96.34;100627.86;1682316;84;21205;-71
2021/03/01 03:06:13;;;;;;;4.60;4.20;;;;;;;1.49;96.37;100627.86;1670460;84;21109;-71
2021/03/01 03:08:40;;;;;;;4.33;3.93;;;;;;;1.49;96.41;100634.48;1682188;85;21146;-73
2021/03/01 03:11:08;;;;;;;3.77;3.47;;;;;;;1.52;96.47;100639.47;1696855;84;21148;-72
2021/03/01 03:13:35;;;;;;;5.47;4.97;;;;;;;1.54;96.32;100639.28;1682105;85;21109;-72
2021/03/01 03:16:04;;;;;;;5.97;5.00;;;;;;;1.55;96.26;100652.38;1696767;84;21928;-73
2021/03/01 03:18:31;;;;;;;7.03;6.00;;;;;;;1.55;96.17;100641.77;1681968;85;21137;-72
2021/03/01 03:20:59;;;;;;;8.93;6.20;;;;;;;1.53;96.04;100644.27;1657043;85;21031;-72
2021/03/01 03:23:26;;;;;;;6.60;6.00;;;;;;;1.56;96.26;100643.92;1668921;84;21644;-72
2021/03/01 03:25:54;;;;;;;10.97;8.80;;;;;;;1.57;96.14;100645.59;1696838;84;21650;-72
2021/03/01 03:28:21;;;;;;;11.80;8.10;;;;;;;1.54;96.12;100647.23;1696731;84;22383;-71
2021/03/01 03:30:49;;;;;;;12.50;9.40;;;;;;;1.59;96.23;100651.53;1696818;84;21209;-71
2021/03/01 03:33:17;;;;;;;10.13;8.50;;;;;;;1.64;96.25;100655.84;1696811;84;21149;-71
2021/03/01 03:35:45;;;;;;;6.60;5.83;;;;;;;1.59;95.94;100651.04;1697108;84;21132;-72
2021/03/01 03:38:26;;;;;;;8.90;7.20;;;;;;;1.60;95.94;100648.72;1683440;85;21177;-71
2021/03/01 03:40:57;;;;;;;8.67;7.87;;;;;;;1.55;95.71;100651.05;1698041;84;22053;-70
2021/03/01 03:43:26;;;;;;;6.80;6.20;;;;;;;1.48;95.71;100654.06;1698319;84;21140;-72
2021/03/01 03:45:56;;;;;;;6.27;5.67;;;;;;;1.44;95.84;100654.03;1697621;84;21144;-71
2021/03/01 03:48:25;;;;;;;7.90;7.20;;;;;;;1.44;95.94;100658.01;1696718;84;21594;-71
2021/03/01 03:50:54;;;;;;;8.87;7.97;;;;;;;1.47;96.16;100660.34;1682121;85;21137;-71
2021/03/01 03:53:26;;;;;;;8.67;7.87;;;;;;;1.50;96.16;100660.00;1696825;84;21295;-71
2021/03/01 03:55:56;;;;;;;8.50;7.30;;;;;;;1.49;96.03;100660.98;1696771;84;21192;-72
2021/03/01 03:58:28;;;;;;;6.77;5.67;;;;;;;1.44;95.93;100661.98;1682252;85;21629;-73
2021/03/01 04:00:57;;;;;;;7.07;6.30;;;;;;;1.39;95.87;100667.48;1696826;84;21132;-74
2021/03/01 04:03:25;;;;;;;7.43;6.70;;;;;;;1.35;96.00;100672.27;1682069;85;21224;-71
2021/03/01 04:05:55;;;;;;;6.50;5.97;;;;;;;1.37;96.22;100672.94;1702546;83;21495;-73
2021/03/01 04:08:23;;;;;;;7.90;7.10;;;;;;;1.37;96.28;100676.09;1705228;83;21125;-74
2021/03/01 04:10:52;;;;;;;6.87;6.17;;;;;;;1.38;96.31;100678.58;1705228;84;21035;-73
2021/03/01 04:13:22;;;;;;;7.33;6.30;;;;;;;1.38;96.25;100679.91;1705281;83;21568;-73
2021/03/01 04:15:50;;;;;;;11.03;9.83;;;;;;;1.38;96.21;100676.42;1705353;83;21173;-72
2021/03/01 04:18:27;;;;;;;10.90;9.03;;;;;;;1.40;96.29;100676.58;1705325;84;21264;-72
2021/03/01 04:20:56;;;;;;;8.47;7.07;;;;;;;1.43;96.30;100673.61;1705675;84;21129;-73
2021/03/01 04:23:23;;;;;;;6.33;5.47;;;;;;;1.37;96.08;100678.73;1706016;84;21130;-72
2021/03/01 04:25:51;;;;;;;4.63;4.20;;;;;;;1.32;96.25;100677.91;1705480;84;21189;-72
2021/03/01 04:28:19;;;;;;;4.43;4.03;;;;;;;1.34;96.45;100686.53;1683374;84;21197;-72
2021/03/01 04:30:48;;;;;;;3.53;3.23;;;;;;;1.34;96.47;100683.05;1705351;83;22018;-74
2021/03/01 04:33:17;;;;;;;5.70;5.13;;;;;;;1.38;96.71;100691.00;1705358;84;21730;-74
2021/03/01 04:35:45;;;;;;;8.17;6.27;;;;;;;1.36;96.58;100692.48;1683568;84;21186;-73
2021/03/01 04:38:13;;;;;;;10.30;6.30;;;;;;;1.36;96.58;100699.11;1683284;84;21138;-76
2021/03/01 04:40:43;;;;;;;11.10;6.20;;;;;;;1.35;96.51;100698.77;1705326;83;21173;-73
2021/03/01 04:43:11;;;;;;;15.73;9.63;;;;;;;1.34;96.52;100705.09;1705306;84;21794;-72
2021/03/01 04:45:40;;;;;;;10.30;7.80;;;;;;;1.36;96.69;100711.53;1660498;84;21173;-72
2021/03/01 04:48:10;;;;;;;17.83;8.10;;;;;;;1.41;96.82;100707.39;1705394;83;21122;-73
2021/03/01 04:50:38;;;;;;;11.00;6.67;;;;;;;1.50;96.91;100719.64;1705286;84;21231;-73
2021/03/01 04:53:05;;;;;;;13.80;6.63;;;;;;;1.53;96.61;100727.78;1705338;83;21162;-72
2021/03/01 04:55:33;;;;;;;18.77;7.97;;;;;;;1.54;96.58;100725.44;1705386;84;22229;-74
2021/03/01 04:58:01;;;;;;;17.40;7.03;;;;;;;1.49;96.27;100729.08;1705241;84;21170;-72
2021/03/01 05:00:28;;;;;;;17.03;7.00;;;;;;;1.51;96.41;100732.41;1683526;84;21620;-73
2021/03/01 05:02:56;;;;;;;11.47;7.00;;;;;;;1.48;96.39;100745.52;1683479;84;21563;-73
2021/03/01 05:05:24;;;;;;;11.03;5.80;;;;;;;1.46;96.48;100746.66;1703164;84;21192;-71
2021/03/01 05:07:53;;;;;;;7.03;4.17;;;;;;;1.42;96.50;100751.46;1682111;85;21372;-74
2021/03/01 05:10:20;;;;;;;10.40;5.60;;;;;;;1.44;96.65;100754.76;1696708;84;21134;-72
2021/03/01 05:12:48;;;;;;;11.33;5.40;;;;;;;1.44;96.50;100760.59;1681945;85;21188;-73
2021/03/01 05:15:16;;;;;;;8.43;4.87;;;;;;;1.44;96.47;100761.91;1696644;84;21176;-71
2021/03/01 05:17:45;;;;;;;4.27;3.93;;;;;;;1.46;96.50;100764.71;1696686;84;21188;-72
2021/03/01 05:20:13;;;;;;;7.17;6.47;;;;;;;1.50;96.49;100766.03;1696777;84;22460;-73
2021/03/01 05:22:41;;;;;;;7.67;5.60;;;;;;;1.46;96.36;100769.19;1681962;85;21186;-75
2021/03/01 05:25:11;;;;;;;6.90;6.20;;;;;;;1.49;96.49;100779.45;1696709;83;21022;-73
2021/03/01 05:27:38;;;;;;;7.07;6.33;;;;;;;1.52;96.47;100781.78;1696646;84;21166;-74
2021/03/01 05:30:08;;;;;;;6.73;6.13;;;;;;;1.51;96.27;100784.93;1682070;85;21149;-74
2021/03/01 05:32:36;;;;;;;5.60;5.00;;;;;;;1.55;96.40;100794.70;1696669;84;21371;-74
2021/03/01 05:35:06;;;;;;;7.10;5.60;;;;;;;1.62;96.48;100795.72;1681984;85;21165;-74
2021/03/01 05:37:34;;;;;;;6.63;5.70;;;;;;;1.70;96.43;100807.64;1696659;84;21208;-72
2021/03/01 05:40:04;;;;;;;10.53;9.27;;;;;;;1.72;96.28;100807.83;1696726;84;21121;-72
2021/03/01 05:42:33;;;;;;;14.60;10.23;;;;;;;1.73;96.09;100813.44;1696675;84;21173;-72
2021/03/01 05:45:06;;;;;;;13.77;8.70;;;;;;;1.71;95.82;100817.27;1696739;84;22337;-74
2021/03/01 05:47:35;;;;;;;16.77;9.27;;;;;;;1.67;95.76;100819.42;1671018;84;21197;-72
2021/03/01 05:50:06;;;;;;;13.80;10.50;;;;;;;1.64;95.74;100826.85;1697091;84;21333;-73
2021/03/01 05:52:35;;;;;;;12.00;10.30;;;;;;;1.65;95.84;100835.15;1682321;85;21229;-72
2021/03/01 05:55:07;;;;;;;15.70;9.60;;;;;;;1.68;95.86;100842.77;1696957;83;21190;-73
2021/03/01 05:57:34;;;;;;;11.10;7.37;;;;;;;1.58;95.50;100847.42;1696892;84;21393;-72
2021/03/01 06:00:04;;;;;;;12.97;7.03;;;;;;;1.57;95.66;100859.01;1696826;84;21009;-73
2021/03/01 06:02:32;;;;;;;8.43;7.23;;;;;;;1.57;95.76;100853.70;1696716;84;21132;-72
2021/03/01 06:05:02;;;;;;;17.43;10.60;;;;;;;1.59;95.90;100856.52;1697127;83;21212;-71
2021/03/01 06:07:30;;;;;;;12.97;8.63;;;;;;;1.62;95.98;100858.86;1705490;84;21110;-72
2021/03/01 06:09:59;;;;;;;16.13;8.50;;;;;;;1.60;95.82;100866.63;1705288;84;21870;-72
2021/03/01 06:12:26;;;;;;;8.07;6.33;;;;;;;1.57;95.81;100865.14;1683272;84;21142;-73
2021/03/01 06:14:57;;;;;;;7.07;5.83;;;;;;;1.61;95.96;100873.59;1705305;84;21157;-73
2021/03/01 06:17:25;;;;;;;6.97;5.33;;;;;;;1.64;96.01;100874.09;1683413;84;21604;-73
2021/03/01 06:19:59;;;;;;;7.10;5.53;;;;;;;1.67;96.05;100875.11;1705321;84;21150;-72
2021/03/01 06:22:42;;;;;;;7.67;5.47;;;;;;;1.72;96.02;100879.43;1705356;84;21363;-72
2021/03/01 06:25:14;;;;;;;;;;;;;;;1.74;95.95;100880.57;1707895;84;21603;-72
2021/03/01 06:27:59;;;;;;;6.67;5.30;;;;;;;1.71;95.86;100891.02;1705266;84;20222;-73
2021/03/01 06:30:36;;;;;;;7.17;5.10;;;;;;;1.71;95.92;100900.30;1706051;84;21134;-74
2021/03/01 06:33:13;;;;;;;5.53;4.93;;;;;;;1.74;96.09;100899.97;1666677;86;21170;-73
2021/03/01 06:35:52;;;;;;;9.37;6.60;;;;;;;1.73;95.98;100900.95;1666748;86;21436;-72
2021/03/01 06:38:35;;;;;;;6.87;6.17;;;;;;;1.67;95.95;100916.22;1666728;86;21594;-71
2021/03/01 06:41:15;;;;;;;11.13;7.63;;;;;;;1.62;96.06;100925.15;1666592;85;21425;-73
2021/03/01 06:43:59;;;;;;;13.60;7.87;;;;;;;1.62;96.15;100925.15;1666630;86;21201;-73
2021/03/01 06:46:33;;;;;;;17.37;10.70;;;;;;;1.55;96.23;100920.63;1666577;86;21217;-71
2021/03/01 06:49:14;;;;;;;8.50;7.60;;;;;;;1.56;96.40;100935.06;1666806;86;21382;-70
2021/03/01 06:51:42;;;;;;;12.47;8.23;;;;;;;1.56;96.53;100931.58;1666695;85;21153;-74
2021/03/01 06:54:12;;;;;;;11.80;8.47;;;;;;;1.59;96.56;100940.52;1666764;86;21153;-73
2021/03/01 06:56:42;;;;;;;10.70;8.23;;;;;;;1.60;96.64;100946.17;1645745;86;21185;-72
2021/03/01 06:59:18;;;;;;;11.50;8.77;;;;;;;1.62;96.72;100949.02;1666917;86;21194;-72
2021/03/01 07:01:56;;;;;;;9.83;7.90;;;;;;;1.68;96.84;100954.97;1666796;86;21435;-79
2021/03/01 07:04:31;;;;;;;10.50;6.80;;;;;;;1.79;97.04;100957.83;1666520;85;21422;-71
2021/03/01 07:07:00;;;;;;;9.67;6.97;;;;;;;1.71;96.60;100949.86;1675232;85;21148;-73
2021/03/01 07:09:32;;;;;;;12.30;8.47;;;;;;;1.66;96.50;100951.67;1650916;86;21031;-75
2021/03/01 07:12:00;;;;;;;7.83;6.83;;;;;;;1.61;96.51;100957.95;1680929;85;21149;-71
2021/03/01 07:14:28;;;;;;;12.90;8.13;;;;;;;1.60;96.63;100958.10;1681035;85;22806;-72
2021/03/01 07:16:58;;;;;;;9.13;8.23;;;;;;;1.65;96.79;100969.06;1680740;85;21181;-76
2021/03/01 07:19:29;;;;;;;7.03;6.33;;;;;;;1.69;96.85;100965.92;1681021;85;21137;-73
2021/03/01 07:22:00;;;;;;;8.43;7.63;;;;;;;1.74;96.78;100966.27;1681026;85;21650;-72
2021/03/01 07:24:30;;;;;;;10.20;7.80;;;;;;;1.68;96.48;100966.91;1681053;84;21172;-71
2021/03/01 07:27:05;;;;;;;9.77;8.60;;;;;;;1.63;96.62;100969.20;1680915;85;21505;-74
2021/03/01 07:29:37;;;;;;;10.87;8.57;;;;;;;1.66;96.77;100972.05;1680900;85;21117;-72
2021/03/01 07:32:09;;;;;;;9.30;8.40;;;;;;;1.74;96.91;100970.25;1680943;85;21066;-73
2021/03/01 07:34:37;;;;;;;12.13;8.97;;;;;;;1.82;97.06;100974.77;1680972;85;21662;-74
2021/03/01 07:37:05;;;;;;;9.53;7.27;;;;;;;1.91;97.03;100973.79;1680911;85;21118;-73
2021/03/01 07:39:35;;;;;;;8.97;7.70;;;;;;;1.80;96.22;100975.41;1680906;85;21769;-75
2021/03/01 07:42:06;;;;;;;9.35;8.30;;;;;;;1.82;96.41;100987.19;1681034;84;21582;-73
2021/03/01 07:44:37;;;;;;;8.13;7.33;;;;;;;1.80;96.49;100983.86;1680998;85;21666;-72
2021/03/01 07:47:05;;;;;;;11.63;9.65;;;;;;;1.84;96.61;100986.52;1681220;85;21215;-74
2021/03/01 07:49:42;;;;;;;9.10;8.17;;;;;;;1.88;96.58;100993.16;1680781;85;21230;-74
2021/03/01 07:52:26;;;;;;;8.30;7.33;;;;;;;1.92;96.60;100986.56;1681148;85;22323;-73
2021/03/01 07:55:07;;;;;;;9.87;7.80;;;;;;;1.89;96.32;100988.19;1681039;85;21161;-74
2021/03/01 07:57:37;;;;;;;8.53;7.73;;;;;;;1.87;96.32;100990.20;1681000;85;21121;-76
2021/03/01 08:00:25;;;;;;;9.97;7.73;;;;;;;1.85;96.34;100998.80;1681012;84;21708;-74
2021/03/01 08:02:53;;;;;;;9.07;8.17;;;;;;;1.81;96.34;100990.83;1680787;85;21154;-75
2021/03/01 08:05:27;;;;;;;9.20;8.40;;;;;;;1.81;96.38;101001.44;1680800;85;21532;-72
2021/03/01 08:07:55;;;;;;;11.22;8.40;;;;;;;1.80;96.38;101003.75;1655297;85;21598;-75
2021/03/01 08:10:34;;;;;;;12.10;8.60;;;;;;;1.79;96.46;101002.08;1696732;84;21017;-74
2021/03/01 08:13:04;;;;;;;7.93;6.83;;;;;;;1.84;96.65;101007.24;1696715;84;21578;-74
2021/03/01 08:15:40;;;;;;;127.20;70.25;;;;;;;1.89;96.58;101010.25;1696744;84;21239;-73
2021/03/01 08:18:10;;;;;;;38.25;24.50;;;;;;;1.96;96.25;101012.61;1696779;84;21371;-73
2021/03/01 08:20:40;;;;;;;16.33;12.70;;;;;;;2.00;96.27;101021.06;1696694;84;21254;-76
2021/03/01 08:23:11;;;;;;;13.50;9.83;;;;;;;2.02;95.79;101018.56;1696760;84;21554;-74
2021/03/01 08:25:52;;;;;;;8.83;7.65;;;;;;;2.05;95.78;101021.41;1696727;84;21625;-74
2021/03/01 08:31:23;;;;;;;35.93;18.30;;;;;;;2.34;95.50;101018.31;1847000;76;22596;-71
2021/03/01 08:33:51;;;;;;;17.50;11.33;;;;;;;2.28;94.34;101030.41;1817111;79;21051;-74
2021/03/01 08:36:22;;;;;;;8.65;7.78;;;;;;;2.23;94.04;101034.55;1816806;79;21186;-71
2021/03/01 08:38:50;;;;;;;8.15;7.03;;;;;;;2.28;94.59;101030.91;1818205;79;21524;-70
2021/03/01 08:41:29;;;;;;;7.62;6.80;;;;;;;2.41;94.83;101030.75;1817104;79;20940;-75
2021/03/01 08:43:56;;;;;;;9.13;8.08;;;;;;;2.48;94.32;101035.76;1813349;79;20951;-70
2021/03/01 08:46:24;;;;;;;9.10;7.80;;;;;;;2.44;93.06;101037.58;1817143;79;21539;-70
2021/03/01 08:48:54;;;;;;;9.93;8.78;;;;;;;2.45;93.36;101036.56;1816831;79;21133;-69
2021/03/01 08:51:22;;;;;;;9.93;8.93;;;;;;;2.50;93.20;101040.88;1816944;79;21004;-71
2021/03/01 08:53:53;;;;;;;7.35;6.67;;;;;;;2.57;93.34;101036.59;1816919;79;21019;-71
2021/03/01 08:56:24;;;;;;;7.05;6.45;;;;;;;2.69;93.30;101038.41;1817003;79;21179;-68
2021/03/01 08:58:56;;;;;;;8.65;7.75;;;;;;;2.82;93.17;101043.58;1816982;79;21149;-70
2021/03/01 09:01:24;;;;;;;8.75;6.40;;;;;;;2.84;92.06;101047.37;1817125;78;21363;-69
2021/03/01 09:03:52;;;;;;;7.22;6.55;;;;;;;2.82;91.70;101050.72;1817004;79;21035;-73
2021/03/01 09:06:21;;;;;;;6.08;5.28;;;;;;;2.85;91.34;101049.04;1817059;79;20999;-70
2021/03/01 09:08:53;;;;;;;6.15;5.65;;;;;;;2.88;90.45;101057.50;1817260;79;21173;-67
2021/03/01 09:11:26;;;;;;;7.95;6.05;;;;;;;2.92;90.18;101063.34;1785158;79;21114;-69
2021/03/01 09:14:02;;;;;;;6.85;5.92;;;;;;;2.98;90.21;101054.17;1809233;79;22280;-70
2021/03/01 09:16:31;;;;;;;7.90;5.17;;;;;;;2.98;89.60;101060.82;1815279;79;21162;-70
2021/03/01 09:19:11;;;;;;;8.65;6.75;;;;;;;2.89;89.35;101067.63;1749256;81;21201;-69
2021/03/01 09:21:40;;;;;;;8.70;7.17;;;;;;;2.87;89.62;101066.98;1720315;83;21125;-71
2021/03/01 09:24:11;;;;;;;6.58;5.87;;;;;;;2.89;89.62;101075.61;1730691;82;21129;-67
2021/03/01 09:26:44;;;;;;;5.55;5.10;;;;;;;2.98;89.88;101075.44;1729999;82;21228;-68
2021/03/01 09:29:19;;;;;;;5.12;4.62;;;;;;;3.08;89.59;101084.08;1783561;80;25566;-71
2021/03/01 09:34:30;;;;;;;6.63;4.97;;;;;;;3.16;88.74;101090.40;1889236;76;22644;-69
2021/03/01 09:37:00;;;;;;;5.72;4.70;;;;;;;3.06;88.87;101092.73;1857818;77;21043;-68
2021/03/01 09:39:36;;;;;;;7.85;5.83;;;;;;;3.07;88.68;101100.18;1765983;78;21010;-69
2021/03/01 09:42:00;;;;;;;4.87;4.35;;;;;;;2.97;87.70;101098.22;1821363;78;21015;-69
2021/03/01 09:44:30;;;;;;;6.12;5.53;;;;;;;2.99;87.80;101104.17;1822328;78;21028;-70
2021/03/01 09:46:59;;;;;;;12.70;7.72;;;;;;;3.06;87.90;101111.34;1822349;78;21146;-69
2021/03/01 09:49:28;;;;;;;6.33;5.72;;;;;;;3.21;88.45;101105.35;1822330;78;21016;-69
2021/03/01 09:51:56;;;;;;;6.87;5.03;;;;;;;3.30;88.30;101098.53;1791333;78;21481;-68
2021/03/01 09:54:25;;;;;;;5.17;4.67;;;;;;;3.38;87.90;101105.65;1790662;78;21194;-70
2021/03/01 09:56:56;;;;;;;5.90;5.30;;;;;;;3.39;86.65;101103.33;1821637;78;21040;-69
2021/03/01 09:59:40;;;;;;;6.05;5.12;;;;;;;3.45;87.04;101105.33;1822240;78;21180;-69
2021/03/01 10:02:17;;;;;;;6.08;5.08;;;;;;;3.47;86.23;101105.47;1822633;78;21553;-69
2021/03/01 10:04:46;;;;;;;4.90;4.50;;;;;;;3.50;85.89;101102.46;1823169;78;21421;-69
2021/03/01 10:07:26;;;;;;;5.55;4.97;;;;;;;3.43;85.27;101102.82;1819228;78;21171;-69
2021/03/01 10:09:55;;;;;;;6.75;6.05;;;;;;;3.41;85.16;101098.16;1822394;78;21003;-67
2021/03/01 10:12:23;;;;;;;7.22;6.22;;;;;;;3.53;85.53;101094.66;1822216;78;21086;-71
2021/03/01 10:14:59;;;;;;;5.50;5.00;;;;;;;3.65;85.31;101091.95;1822235;78;21126;-74
2021/03/01 10:17:33;;;;;;;4.83;4.42;;;;;;;3.58;83.65;101094.98;1808235;78;21411;-69
2021/03/01 10:20:08;;;;;;;25.57;16.45;;;;;;;3.56;83.73;101090.81;1789959;80;21130;-69
2021/03/01 10:23:02;;;;;;;8.28;6.90;;;;;;;3.54;83.99;101090.17;1789912;80;21008;-68
2021/03/01 10:25:39;;;;;;;10.23;6.83;;;;;;;3.57;83.42;101085.33;1789951;80;21082;-67
2021/03/01 10:28:27;;;;;;;10.20;8.00;;;;;;;3.57;83.41;101080.02;1790038;80;21142;-69
2021/03/01 10:31:05;;;;;;;5.65;4.70;;;;;;;3.61;83.59;101080.49;1788889;80;21457;-69
2021/03/01 10:33:55;;;;;;;5.50;5.05;;;;;;;3.65;83.30;101077.32;1794285;79;21189;-70
2021/03/01 10:36:33;;;;;;;6.53;4.83;;;;;;;3.60;82.75;101075.67;1798920;79;20979;-68
2021/03/01 10:39:24;;;;;;;4.75;4.33;;;;;;;3.65;83.12;101075.99;1798823;79;21150;-69
2021/03/01 10:41:55;;;;;;;4.78;4.28;;;;;;;3.69;83.02;101072.52;1796658;79;21202;-69
2021/03/01 10:44:34;;;;;;;5.17;4.05;;;;;;;3.75;83.23;101071.80;1771934;79;21426;-70
2021/03/01 10:47:23;;;;;;;4.55;4.15;;;;;;;3.84;83.05;101089.39;1799379;79;21150;-70
2021/03/01 10:50:01;;;;;;;4.50;4.10;;;;;;;3.84;82.86;101086.23;1798413;79;21470;-69
2021/03/01 10:52:30;;;;;;;5.00;3.95;;;;;;;3.85;82.62;101088.40;1797992;79;21241;-69
2021/03/01 10:54:59;;;;;;;4.42;4.03;;;;;;;3.87;82.59;101095.23;1798409;79;21616;-70
2021/03/01 10:57:27;;;;;;;4.65;3.65;;;;;;;3.92;82.60;101090.22;1771863;79;21441;-69
2021/03/01 10:59:58;;;;;;;10.70;6.25;;;;;;;3.95;82.64;101100.51;1798323;79;21153;-69
2021/03/01 11:02:26;;;;;;;5.50;4.53;;;;;;;3.95;82.23;101095.69;1798445;79;21114;-71
2021/03/01 11:04:54;;;;;;;4.37;3.95;;;;;;;3.92;82.07;101095.55;1798383;79;20996;-69
2021/03/01 11:07:21;;;;;;;4.03;3.60;;;;;;;3.93;82.04;101097.70;1798259;79;21028;-69
2021/03/01 11:09:49;;;;;;;4.53;3.58;;;;;;;3.92;81.95;101099.53;1798342;79;21489;-70
2021/03/01 11:12:16;;;;;;;6.20;5.22;;;;;;;3.94;81.87;101095.34;1798266;79;21213;-70
2021/03/01 11:14:44;;;;;;;4.90;4.40;;;;;;;3.91;81.93;101096.54;1798220;79;21171;-71
2021/03/01 11:17:12;;;;;;;5.33;4.47;;;;;;;3.93;82.06;101099.04;1798153;78;21170;-68
2021/03/01 11:19:41;;;;;;;5.05;4.42;;;;;;;3.93;81.92;101097.70;1798323;79;21114;-69
2021/03/01 11:22:09;;;;;;;4.05;3.65;;;;;;;3.92;81.66;101100.87;1798340;79;21217;-68
2021/03/01 11:24:36;;;;;;;6.00;3.70;;;;;;;3.95;81.81;101096.52;1798272;79;21007;-69
2021/03/01 11:27:04;;;;;;;5.90;4.45;;;;;;;3.96;81.36;101098.69;1798791;79;21031;-68
2021/03/01 11:29:33;;;;;;;4.60;4.03;;;;;;;3.94;81.57;101097.52;1798809;79;21106;-71
2021/03/01 11:32:01;;;;;;;4.35;3.95;;;;;;;3.94;81.19;101095.34;1798922;79;21186;-69
2021/03/01 11:34:28;;;;;;;3.90;3.60;;;;;;;3.94;80.98;101096.19;1791715;79;22219;-67
2021/03/01 11:36:59;;;;;;;4.83;4.10;;;;;;;3.85;80.35;101091.06;1789222;80;21219;-69
2021/03/01 11:39:26;;;;;;;3.90;3.45;;;;;;;3.79;80.39;101094.43;1789168;80;21158;-71
2021/03/01 11:41:53;;;;;;;5.95;4.17;;;;;;;3.77;80.92;101093.27;1789133;80;21608;-71
2021/03/01 11:44:22;;;;;;;4.92;4.42;;;;;;;3.75;81.04;101093.92;1755586;80;21126;-70
2021/03/01 11:46:49;;;;;;;5.97;4.67;;;;;;;3.79;81.53;101095.77;1789107;80;21204;-69
2021/03/01 11:49:18;;;;;;;6.78;5.92;;;;;;;3.85;81.65;101092.39;1789252;80;21135;-69
2021/03/01 11:51:45;;;;;;;6.05;4.60;;;;;;;3.88;81.45;101086.75;1789296;80;21012;-68
2021/03/01 11:54:13;;;;;;;5.12;4.45;;;;;;;3.92;81.50;101087.56;1789230;80;21198;-68